Time;durP1;ratioP1;P1;durP2;ratioP2;P2;SDS_P1;SDS_P2;PMS_P1;PMS_P2;Temp;Humidity;BMP_temperature;BMP_pressure;BME280_temperature;BME280_humidity;BME280_pressure;Samples;Min_cycle;Max_cycle;Signal;HPM_P1;HPM_P2
2023/07/28 00:00:09;;;;;;;6.15;4.72;;;21.10;99.90;;;;;;4593921;19;20392;-27
2023/07/28 00:02:00;;;;;;;7.80;5.45;;;21.10;99.90;;;;;;4594194;19;20006;-27
2023/07/28 00:03:32;;;;;;;;;;;21.10;99.90;;;;;;4594188;19;20523;-28
2023/07/28 00:05:03;;;;;;;6.20;3.95;;;21.10;99.90;;;;;;4593293;19;19930;-26
2023/07/28 00:06:34;;;;;;;;;;;21.10;99.90;;;;;;4593654;19;20085;-25
2023/07/28 00:08:06;;;;;;;7.80;4.60;;;21.10;99.90;;;;;;4594034;19;19957;-25
2023/07/28 00:09:38;;;;;;;7.60;4.90;;;21.00;99.90;;;;;;4592525;19;20017;-26
2023/07/28 00:11:12;;;;;;;11.20;4.53;;;21.10;99.90;;;;;;4591034;19;20014;-28
2023/07/28 00:12:45;;;;;;;7.38;4.30;;;21.00;99.90;;;;;;4593226;19;20015;-26
2023/07/28 00:14:17;;;;;;;8.35;4.72;;;21.00;99.90;;;;;;4594399;19;20010;-25
2023/07/28 00:15:50;;;;;;;7.82;4.72;;;21.00;99.90;;;;;;4591973;19;20010;-30
2023/07/28 00:17:22;;;;;;;7.30;4.57;;;21.00;99.90;;;;;;4593223;19;20030;-26
2023/07/28 00:18:53;;;;;;;9.70;4.65;;;21.00;99.90;;;;;;4591817;19;20018;-30
2023/07/28 00:20:25;;;;;;;7.40;4.72;;;21.00;99.90;;;;;;4592704;19;20470;-32
2023/07/28 00:21:57;;;;;;;7.43;4.00;;;21.00;99.90;;;;;;4592697;19;20354;-25
2023/07/28 00:23:29;;;;;;;9.07;5.63;;;21.00;99.90;;;;;;4592410;19;20017;-30
2023/07/28 00:25:02;;;;;;;7.70;4.50;;;21.00;99.90;;;;;;4591912;19;20003;-25
2023/07/28 00:26:34;;;;;;;8.50;4.80;;;21.00;99.90;;;;;;4592830;19;20078;-29
2023/07/28 00:28:06;;;;;;;9.57;4.63;;;21.00;99.90;;;;;;4591932;19;20007;-25
2023/07/28 00:29:37;;;;;;;9.07;4.28;;;21.00;99.90;;;;;;4592851;19;20007;-29
2023/07/28 00:31:08;;;;;;;7.95;4.05;;;21.00;99.90;;;;;;4592106;19;20037;-29
2023/07/28 00:32:41;;;;;;;5.93;3.90;;;21.00;99.90;;;;;;4593468;19;20328;-24
2023/07/28 00:34:13;;;;;;;8.43;4.72;;;21.00;99.90;;;;;;4591944;19;20494;-25
2023/07/28 00:35:46;;;;;;;6.72;4.25;;;21.00;99.90;;;;;;4592854;19;20018;-26
2023/07/28 00:37:19;;;;;;;6.75;4.05;;;21.00;99.90;;;;;;4593471;19;20002;-26
2023/07/28 00:38:51;;;;;;;6.82;4.03;;;21.00;99.90;;;;;;4591384;19;20337;-26
2023/07/28 00:40:22;;;;;;;7.97;3.97;;;21.00;99.90;;;;;;4593055;19;20030;-25
2023/07/28 00:41:55;;;;;;;7.80;3.85;;;21.00;99.90;;;;;;4592505;19;20010;-29
2023/07/28 00:43:28;;;;;;;7.13;4.45;;;21.00;99.90;;;;;;4593373;19;20385;-25
2023/07/28 00:45:01;;;;;;;9.02;4.68;;;20.90;99.90;;;;;;4592126;19;20025;-25
2023/07/28 00:46:32;;;;;;;7.25;4.15;;;20.90;99.90;;;;;;4593058;19;20010;-25
2023/07/28 00:48:05;;;;;;;8.85;5.03;;;20.90;99.90;;;;;;4592850;19;20011;-24
2023/07/28 00:49:36;;;;;;;8.60;4.38;;;20.90;99.90;;;;;;4591793;19;20009;-28
2023/07/28 00:51:08;;;;;;;8.27;4.80;;;20.90;99.90;;;;;;4589369;19;20010;-25
2023/07/28 00:52:39;;;;;;;7.70;4.30;;;20.90;99.90;;;;;;4591266;19;20010;-27
2023/07/28 00:54:11;;;;;;;6.90;4.05;;;20.90;99.90;;;;;;4592306;19;20013;-25
2023/07/28 00:55:42;;;;;;;7.45;4.03;;;20.90;99.90;;;;;;4592822;19;20014;-27
2023/07/28 00:57:16;;;;;;;8.13;4.28;;;20.90;99.90;;;;;;4592596;19;20014;-25
2023/07/28 00:58:47;;;;;;;8.73;4.65;;;20.90;99.90;;;;;;4590134;19;20022;-25
2023/07/28 01:00:19;;;;;;;;;;;20.90;99.90;;;;;;4592297;19;20382;-26
2023/07/28 01:01:50;;;;;;;7.07;4.38;;;20.90;99.90;;;;;;4592228;19;19918;-25
2023/07/28 01:03:21;;;;;;;8.15;4.05;;;20.90;99.90;;;;;;4592363;19;20018;-25
2023/07/28 01:04:52;;;;;;;9.20;4.45;;;20.90;99.90;;;;;;4593038;19;20479;-25
2023/07/28 01:06:45;;;;;;;9.15;4.70;;;20.90;99.90;;;;;;4591977;19;19998;-24
2023/07/28 01:08:23;;;;;;;6.95;4.00;;;20.90;99.90;;;;;;4591125;19;20037;-27
2023/07/28 01:10:12;;;;;;;5.97;4.03;;;20.90;99.90;;;;;;4590941;19;20014;-25
2023/07/28 01:11:58;;;;;;;8.55;4.13;;;20.90;99.90;;;;;;4591350;19;20048;-24
2023/07/28 01:13:30;;;;;;;7.18;4.13;;;20.90;99.90;;;;;;4591431;19;20010;-26
2023/07/28 01:15:02;;;;;;;7.82;4.57;;;20.90;99.90;;;;;;4591321;19;20002;-26
2023/07/28 01:16:34;;;;;;;8.23;4.28;;;20.90;99.90;;;;;;4591995;19;20010;-25
2023/07/28 01:18:06;;;;;;;;;;;20.90;99.90;;;;;;4592600;19;20363;-24
2023/07/28 01:19:40;;;;;;;7.20;4.43;;;20.90;99.90;;;;;;4592109;19;19922;-25
2023/07/28 01:21:17;;;;;;;8.63;4.43;;;20.90;99.90;;;;;;4592269;19;20011;-26
2023/07/28 01:23:28;;;;;;;7.45;4.32;;;20.90;99.90;;;;;;4591473;19;20040;-28
2023/07/28 01:25:09;;;;;;;8.02;4.15;;;20.90;99.90;;;;;;4592047;19;20368;-29
2023/07/28 01:26:41;;;;;;;5.95;3.67;;;20.90;99.90;;;;;;4591741;19;20011;-25
2023/07/28 01:28:14;;;;;;;6.72;4.32;;;20.90;99.90;;;;;;4590587;19;20014;-28
2023/07/28 01:29:47;;;;;;;7.72;4.30;;;20.90;99.90;;;;;;4590701;19;20014;-29
2023/07/28 01:31:19;;;;;;;6.78;4.03;;;20.90;99.90;;;;;;4590688;19;20099;-30
2023/07/28 01:32:55;;;;;;;6.95;4.38;;;20.80;99.90;;;;;;4590551;19;20006;-28
2023/07/28 01:34:26;;;;;;;7.75;4.40;;;20.80;99.90;;;;;;4590499;19;20003;-24
2023/07/28 01:36:00;;;;;;;6.70;4.57;;;20.90;99.90;;;;;;4591095;19;20048;-25
2023/07/28 01:37:32;;;;;;;8.23;4.20;;;20.80;99.90;;;;;;4591416;19;20017;-25
2023/07/28 01:39:03;;;;;;;5.30;3.95;;;20.90;99.90;;;;;;4590357;19;20078;-26
2023/07/28 01:40:35;;;;;;;8.57;4.68;;;20.80;99.90;;;;;;4590691;19;20472;-25
2023/07/28 01:42:06;;;;;;;6.30;3.78;;;20.80;99.90;;;;;;4591040;19;20022;-31
2023/07/28 01:43:37;;;;;;;5.53;3.53;;;20.80;99.90;;;;;;4590174;19;20037;-25
2023/07/28 01:45:11;;;;;;;4.68;3.42;;;20.80;99.90;;;;;;4590551;19;20033;-24
2023/07/28 01:46:44;;;;;;;5.63;2.92;;;20.80;99.90;;;;;;4591901;19;20011;-25
2023/07/28 01:48:15;;;;;;;6.38;4.10;;;20.80;99.90;;;;;;4590358;19;20357;-28
2023/07/28 01:49:47;;;;;;;6.35;3.38;;;20.80;99.90;;;;;;4591489;19;20010;-25
2023/07/28 01:51:18;;;;;;;;;;;20.80;99.90;;;;;;4592257;19;20019;-25
2023/07/28 01:52:49;;;;;;;7.23;3.60;;;20.80;99.90;;;;;;4591478;19;20328;-25
2023/07/28 01:54:20;;;;;;;4.72;3.35;;;20.80;99.90;;;;;;4590145;19;20429;-25
2023/07/28 01:55:53;;;;;;;6.50;3.40;;;20.80;99.90;;;;;;4590869;19;20022;-26
2023/07/28 01:57:30;;;;;;;5.32;3.28;;;20.80;99.90;;;;;;4591513;19;20466;-28
2023/07/28 01:59:01;;;;;;;4.72;2.78;;;20.80;99.90;;;;;;4589120;19;20372;-24
2023/07/28 02:00:33;;;;;;;;;;;20.80;99.90;;;;;;4591881;19;20014;-30
2023/07/28 02:02:06;;;;;;;5.07;3.63;;;20.80;99.90;;;;;;4589108;19;20359;-29
2023/07/28 02:03:40;;;;;;;4.97;2.92;;;20.80;99.90;;;;;;4590239;19;20014;-27
2023/07/28 02:05:12;;;;;;;5.47;3.20;;;20.90;99.90;;;;;;4591120;19;20074;-25
2023/07/28 02:06:45;;;;;;;4.32;3.10;;;20.80;99.90;;;;;;4590321;19;20006;-25
2023/07/28 02:08:16;;;;;;;6.65;3.75;;;20.80;99.90;;;;;;4590543;19;20019;-24
2023/07/28 02:09:48;;;;;;;;;;;20.80;99.90;;;;;;4590800;19;20018;-25
2023/07/28 02:11:19;;;;;;;5.25;3.00;;;20.90;99.90;;;;;;4590163;19;19915;-30
2023/07/28 02:12:51;;;;;;;4.68;3.10;;;20.80;99.90;;;;;;4590370;19;20020;-30
2023/07/28 02:14:23;;;;;;;4.88;3.22;;;20.80;99.90;;;;;;4590419;19;20367;-26
2023/07/28 02:15:54;;;;;;;5.40;2.95;;;20.80;99.90;;;;;;4591400;19;20014;-24
2023/07/28 02:17:27;;;;;;;4.75;3.10;;;20.80;99.90;;;;;;4591013;19;20018;-30
2023/07/28 02:18:58;;;;;;;5.18;3.25;;;20.80;99.90;;;;;;4590629;19;20014;-25
2023/07/28 02:20:29;;;;;;;5.05;3.15;;;20.80;99.90;;;;;;4589869;19;20070;-25
2023/07/28 02:22:02;;;;;;;4.25;2.88;;;20.80;99.90;;;;;;4590492;19;20044;-25
2023/07/28 02:23:33;;;;;;;;;;;20.80;99.90;;;;;;4591870;19;20025;-25
2023/07/28 02:25:05;;;;;;;4.50;3.08;;;20.80;99.90;;;;;;4589783;19;19935;-25
2023/07/28 02:26:37;;;;;;;6.20;3.20;;;20.80;99.90;;;;;;4588438;19;20448;-27
2023/07/28 02:28:10;;;;;;;4.40;3.08;;;20.80;99.90;;;;;;4589972;19;20018;-28
2023/07/28 02:29:42;;;;;;;;;;;20.80;99.90;;;;;;4590864;19;20025;-26
2023/07/28 02:31:15;;;;;;;4.70;3.25;;;20.80;99.90;;;;;;4590020;19;19974;-31
2023/07/28 02:32:46;;;;;;;;;;;20.80;99.90;;;;;;4591670;19;20021;-25
2023/07/28 02:34:19;;;;;;;5.10;3.13;;;20.80;99.90;;;;;;4589405;19;19937;-24
2023/07/28 02:35:52;;;;;;;6.13;2.97;;;20.80;99.90;;;;;;4590339;19;20070;-25
2023/07/28 02:37:24;;;;;;;4.53;3.08;;;20.80;99.90;;;;;;4589365;19;20022;-30
2023/07/28 02:38:55;;;;;;;4.43;3.03;;;20.80;99.90;;;;;;4588242;19;20046;-25
2023/07/28 02:40:28;;;;;;;4.13;2.60;;;20.80;99.90;;;;;;4590371;19;20466;-32
2023/07/28 02:42:02;;;;;;;5.82;2.85;;;20.80;99.90;;;;;;4590356;19;20010;-29
2023/07/28 02:43:34;;;;;;;4.00;3.05;;;20.80;99.90;;;;;;4589264;19;20092;-27
2023/07/28 02:45:05;;;;;;;4.90;2.72;;;20.80;99.90;;;;;;4589187;19;20006;-31
2023/07/28 02:46:39;;;;;;;6.00;3.25;;;20.80;99.90;;;;;;4589891;19;20010;-25
2023/07/28 02:48:11;;;;;;;;;;;20.80;99.90;;;;;;4590307;19;20006;-25
2023/07/28 02:49:43;;;;;;;5.85;3.10;;;20.80;99.90;;;;;;4589144;19;19914;-25
2023/07/28 02:51:14;;;;;;;5.07;3.05;;;20.80;99.90;;;;;;4589327;19;20015;-25
2023/07/28 02:52:46;;;;;;;4.43;2.75;;;20.80;99.90;;;;;;4590320;19;20013;-28
2023/07/28 02:54:17;;;;;;;5.82;3.65;;;20.80;99.90;;;;;;4589363;19;20013;-27
2023/07/28 02:55:48;;;;;;;5.57;3.40;;;20.80;99.90;;;;;;4589963;19;20011;-24
2023/07/28 02:57:20;;;;;;;4.70;3.25;;;20.80;99.90;;;;;;4589362;19;20015;-26
2023/07/28 02:58:53;;;;;;;5.75;3.17;;;20.80;99.90;;;;;;4589340;19;20348;-26
2023/07/28 03:00:25;;;;;;;5.10;3.05;;;20.80;99.90;;;;;;4590005;19;20018;-25
2023/07/28 03:01:57;;;;;;;4.60;3.17;;;20.80;99.90;;;;;;4589987;19;20015;-33
2023/07/28 03:03:28;;;;;;;5.82;3.08;;;20.80;99.90;;;;;;4588893;19;20014;-25
2023/07/28 03:05:01;;;;;;;5.53;3.65;;;20.80;99.90;;;;;;4589642;19;20010;-25
2023/07/28 03:06:32;;;;;;;5.78;3.83;;;20.80;99.90;;;;;;4588900;19;20014;-25
2023/07/28 03:08:05;;;;;;;5.30;3.10;;;20.80;99.90;;;;;;4589861;19;20471;-25
2023/07/28 03:09:37;;;;;;;5.07;3.75;;;20.80;99.90;;;;;;4588779;19;20021;-31
2023/07/28 03:11:09;;;;;;;7.90;3.38;;;20.80;99.90;;;;;;4589865;19;20002;-25
2023/07/28 03:12:40;;;;;;;4.68;3.13;;;20.80;99.90;;;;;;4590014;19;20488;-26
2023/07/28 03:14:13;;;;;;;6.32;3.00;;;20.80;99.90;;;;;;4590326;19;20018;-28
2023/07/28 03:15:45;;;;;;;5.47;3.10;;;20.80;99.90;;;;;;4594515;19;20377;-28
2023/07/28 03:17:16;;;;;;;4.22;2.92;;;20.80;99.90;;;;;;4595242;19;20053;-24
2023/07/28 03:18:47;;;;;;;;;;;20.80;99.90;;;;;;4593364;19;20037;-29
2023/07/28 03:20:18;;;;;;;5.38;3.58;;;20.80;99.90;;;;;;4594104;19;20000;-25
2023/07/28 03:21:51;;;;;;;4.75;3.30;;;20.80;99.90;;;;;;4595173;19;20062;-24
2023/07/28 03:23:23;;;;;;;5.35;3.92;;;20.80;99.90;;;;;;4593334;19;20026;-25
2023/07/28 03:24:55;;;;;;;5.00;3.38;;;20.80;99.90;;;;;;4593511;19;20073;-25
2023/07/28 03:26:26;;;;;;;5.60;3.78;;;20.80;99.90;;;;;;4594653;19;20475;-24
2023/07/28 03:27:58;;;;;;;5.35;4.05;;;20.80;99.90;;;;;;4594901;19;20022;-27
2023/07/28 03:29:30;;;;;;;6.07;3.80;;;20.80;99.90;;;;;;4593191;19;20021;-28
2023/07/28 03:31:03;;;;;;;5.00;3.85;;;20.80;99.90;;;;;;4594177;19;20394;-25
2023/07/28 03:32:34;;;;;;;5.13;3.47;;;20.80;99.90;;;;;;4594768;19;20501;-29
2023/07/28 03:34:06;;;;;;;5.75;3.75;;;20.80;99.90;;;;;;4594747;19;20002;-24
2023/07/28 03:35:37;;;;;;;5.50;3.60;;;20.80;99.90;;;;;;4594233;19;20015;-24
2023/07/28 03:37:08;;;;;;;5.53;3.78;;;20.80;99.90;;;;;;4594405;19;20014;-24
2023/07/28 03:38:40;;;;;;;6.05;4.10;;;20.80;99.90;;;;;;4592562;19;20463;-25
2023/07/28 03:40:14;;;;;;;5.03;4.05;;;20.80;99.90;;;;;;4594771;19;20006;-28
2023/07/28 03:41:47;;;;;;;5.22;3.80;;;20.80;99.90;;;;;;4593054;19;20010;-25
2023/07/28 03:43:19;;;;;;;4.88;3.30;;;20.80;99.90;;;;;;4593958;19;20018;-31
2023/07/28 03:44:52;;;;;;;5.03;3.67;;;20.70;99.90;;;;;;4594105;19;20015;-24
2023/07/28 03:46:23;;;;;;;5.18;3.45;;;20.80;99.90;;;;;;4594841;19;19999;-25
2023/07/28 03:47:54;;;;;;;5.05;3.22;;;20.70;99.90;;;;;;4593838;19;20037;-27
2023/07/28 03:49:26;;;;;;;4.85;3.45;;;20.70;99.90;;;;;;4594602;19;20010;-31
2023/07/28 03:50:58;;;;;;;5.47;3.72;;;20.80;99.90;;;;;;4591717;19;20019;-27
2023/07/28 03:52:32;;;;;;;5.68;3.67;;;20.80;99.90;;;;;;4592298;19;20026;-26
2023/07/28 03:54:03;;;;;;;7.43;4.00;;;20.80;99.90;;;;;;4592933;19;20027;-25
2023/07/28 03:55:35;;;;;;;5.55;3.95;;;20.80;99.90;;;;;;4593760;19;20014;-30
2023/07/28 03:57:06;;;;;;;;;;;20.80;99.90;;;;;;4593889;19;20010;-31
2023/07/28 03:58:37;;;;;;;6.10;3.65;;;20.70;99.90;;;;;;4592387;19;19924;-24
2023/07/28 04:00:09;;;;;;;7.45;4.60;;;20.70;99.90;;;;;;4592848;19;20026;-28
2023/07/28 04:01:41;;;;;;;6.65;3.78;;;20.70;99.90;;;;;;4593407;19;20343;-24
2023/07/28 04:03:12;;;;;;;6.53;3.53;;;20.80;99.90;;;;;;4593718;19;20018;-25
2023/07/28 04:04:44;;;;;;;4.55;3.22;;;20.70;99.90;;;;;;4593698;19;20021;-27
2023/07/28 04:06:16;;;;;;;4.68;3.60;;;20.70;99.90;;;;;;4593804;19;20014;-27
2023/07/28 04:07:47;;;;;;;4.53;3.42;;;20.70;99.90;;;;;;4594059;19;20017;-25
2023/07/28 04:09:19;;;;;;;;;;;20.80;99.90;;;;;;4594311;19;20407;-30
2023/07/28 04:10:50;;;;;;;4.53;3.05;;;20.70;99.90;;;;;;4593416;19;19915;-25
2023/07/28 04:12:23;;;;;;;5.53;3.53;;;20.70;99.90;;;;;;4592689;19;20477;-24
2023/07/28 04:13:54;;;;;;;4.03;3.13;;;20.70;99.90;;;;;;4593342;19;20010;-27
2023/07/28 04:15:26;;;;;;;5.13;3.28;;;20.70;99.90;;;;;;4592162;19;20010;-31
2023/07/28 04:16:58;;;;;;;5.63;3.75;;;20.70;99.90;;;;;;4592301;19;20413;-27
2023/07/28 04:18:31;;;;;;;5.15;3.40;;;20.70;99.90;;;;;;4592735;19;20483;-30
2023/07/28 04:20:05;;;;;;;6.47;4.47;;;20.70;99.90;;;;;;4593572;19;20069;-29
2023/07/28 04:21:39;;;;;;;6.40;3.97;;;20.70;99.90;;;;;;4592080;19;20015;-29
2023/07/28 04:23:10;;;;;;;4.95;2.88;;;20.70;99.90;;;;;;4592730;19;20015;-25
2023/07/28 04:24:42;;;;;;;5.25;3.50;;;20.80;99.90;;;;;;4593328;19;20065;-25
2023/07/28 04:26:13;;;;;;;4.28;2.80;;;20.70;99.90;;;;;;4592568;19;20317;-24
2023/07/28 04:27:44;;;;;;;4.30;3.10;;;20.80;99.90;;;;;;4592841;19;20479;-25
2023/07/28 04:29:17;;;;;;;5.00;3.03;;;20.80;99.90;;;;;;4593161;19;20027;-25
2023/07/28 04:30:49;;;;;;;5.60;3.45;;;20.70;99.90;;;;;;4592122;19;20018;-31
2023/07/28 04:32:21;;;;;;;6.70;3.72;;;20.80;99.90;;;;;;4593138;19;20021;-25
2023/07/28 04:33:53;;;;;;;6.00;4.28;;;20.70;99.90;;;;;;4591834;19;20006;-25
2023/07/28 04:35:25;;;;;;;5.63;4.10;;;20.70;99.90;;;;;;4591757;19;20015;-32
2023/07/28 04:36:58;;;;;;;5.03;3.20;;;20.80;99.90;;;;;;4593302;19;19999;-30
2023/07/28 04:38:29;;;;;;;5.47;3.58;;;20.80;99.90;;;;;;4591845;19;20014;-30
2023/07/28 04:40:02;;;;;;;4.60;3.10;;;20.80;99.90;;;;;;4592934;19;20029;-25
2023/07/28 04:41:34;;;;;;;4.70;2.88;;;20.80;99.90;;;;;;4591755;19;20014;-28
2023/07/28 04:43:07;;;;;;;4.85;3.40;;;20.80;99.90;;;;;;4593046;19;20463;-26
2023/07/28 04:44:41;;;;;;;5.22;3.25;;;20.80;99.90;;;;;;4592995;19;20015;-25
2023/07/28 04:46:13;;;;;;;5.85;3.00;;;20.80;99.90;;;;;;4592866;19;20011;-30
2023/07/28 04:47:45;;;;;;;4.40;2.90;;;20.70;99.90;;;;;;4593168;19;20018;-25
2023/07/28 04:49:16;;;;;;;5.03;3.67;;;20.70;99.90;;;;;;4593451;19;20336;-25
2023/07/28 04:50:49;;;;;;;4.72;3.38;;;20.70;99.90;;;;;;4592421;19;20014;-27
2023/07/28 04:52:20;;;;;;;6.47;3.60;;;20.70;99.90;;;;;;4591762;19;20022;-25
2023/07/28 04:53:52;;;;;;;5.05;3.40;;;20.70;99.90;;;;;;4591961;19;20006;-24
2023/07/28 04:55:23;;;;;;;5.88;3.05;;;20.70;99.90;;;;;;4592503;19;20006;-30
2023/07/28 04:56:54;;;;;;;3.83;2.92;;;20.70;99.90;;;;;;4591543;19;20404;-25
2023/07/28 04:58:25;;;;;;;4.35;3.40;;;20.70;99.90;;;;;;4591504;19;20007;-24
2023/07/28 04:59:58;;;;;;;6.07;3.92;;;20.70;99.90;;;;;;4591916;19;20014;-26
2023/07/28 05:01:29;;;;;;;5.45;3.53;;;20.70;99.90;;;;;;4592581;19;20014;-28
2023/07/28 05:03:00;;;;;;;5.43;3.17;;;20.70;99.90;;;;;;4592602;19;20010;-25
2023/07/28 05:04:32;;;;;;;;;;;20.70;99.90;;;;;;4593329;19;20025;-25
2023/07/28 05:06:05;;;;;;;5.78;3.83;;;20.70;99.90;;;;;;4592306;19;19933;-25
2023/07/28 05:07:37;;;;;;;5.68;3.70;;;20.70;99.90;;;;;;4592854;19;20467;-31
2023/07/28 05:09:09;;;;;;;;;;;20.70;99.90;;;;;;4593754;19;20020;-24
2023/07/28 05:10:42;;;;;;;5.40;4.30;;;20.70;99.90;;;;;;4592753;19;19925;-24
2023/07/28 05:12:15;;;;;;;4.97;3.47;;;20.70;99.90;;;;;;4591656;19;20070;-26
2023/07/28 05:13:46;;;;;;;5.10;3.95;;;20.70;99.90;;;;;;4591009;19;20015;-31
2023/07/28 05:15:17;;;;;;;7.38;4.50;;;20.70;99.90;;;;;;4591544;19;20003;-25
2023/07/28 05:16:50;;;;;;;6.65;4.25;;;20.70;99.90;;;;;;4591991;19;20011;-27
2023/07/28 05:18:22;;;;;;;6.57;4.25;;;20.70;99.90;;;;;;4592196;19;20011;-30
2023/07/28 05:19:55;;;;;;;6.00;4.72;;;20.70;99.90;;;;;;4592019;19;20059;-28
2023/07/28 05:21:27;;;;;;;6.25;4.07;;;20.70;99.90;;;;;;4592296;19;20078;-24
2023/07/28 05:22:58;;;;;;;6.28;3.55;;;20.70;99.90;;;;;;4592526;19;20010;-26
2023/07/28 05:24:31;;;;;;;8.25;4.05;;;20.70;99.90;;;;;;4592601;19;20455;-25
2023/07/28 05:26:03;;;;;;;5.53;3.28;;;20.70;99.90;;;;;;4590848;19;20010;-25
2023/07/28 05:27:35;;;;;;;4.63;4.10;;;20.70;99.90;;;;;;4591694;19;20100;-29
2023/07/28 05:29:06;;;;;;;7.00;4.30;;;20.70;99.90;;;;;;4591491;19;20019;-25
2023/07/28 05:30:37;;;;;;;6.38;4.00;;;20.70;99.90;;;;;;4591717;19;20003;-28
2023/07/28 05:32:09;;;;;;;5.43;4.28;;;20.70;99.90;;;;;;4592041;19;20010;-29
2023/07/28 05:33:41;;;;;;;5.72;4.53;;;20.70;99.90;;;;;;4591784;19;20014;-27
2023/07/28 05:35:13;;;;;;;10.55;4.45;;;20.70;99.90;;;;;;4592484;19;20337;-24
2023/07/28 05:36:44;;;;;;;7.18;4.78;;;20.70;99.90;;;;;;4589979;19;20010;-27
2023/07/28 05:38:16;;;;;;;6.53;4.43;;;20.70;99.90;;;;;;4589845;19;20361;-28
2023/07/28 05:39:48;;;;;;;7.10;4.68;;;20.60;99.90;;;;;;4590388;19;20410;-28
2023/07/28 05:41:20;;;;;;;8.23;4.97;;;20.70;99.90;;;;;;4591790;19;20345;-24
2023/07/28 05:42:51;;;;;;;6.90;5.28;;;20.70;99.90;;;;;;4591648;19;20019;-25
2023/07/28 05:44:22;;;;;;;7.45;5.15;;;20.60;99.90;;;;;;4589225;19;20021;-24
2023/07/28 05:45:54;;;;;;;5.20;4.45;;;20.60;99.90;;;;;;4589403;19;20030;-30
2023/07/28 05:47:25;;;;;;;;;;;20.60;99.90;;;;;;4592667;19;20058;-30
2023/07/28 05:48:57;;;;;;;7.35;4.47;;;20.60;99.90;;;;;;4589356;19;20396;-29
2023/07/28 05:50:29;;;;;;;6.03;4.53;;;20.60;99.90;;;;;;4589804;19;20030;-28
2023/07/28 05:52:02;;;;;;;6.10;4.68;;;20.60;99.90;;;;;;4587695;19;20018;-29
2023/07/28 05:53:33;;;;;;;7.53;4.85;;;20.60;99.90;;;;;;4589823;19;20045;-29
2023/07/28 05:55:05;;;;;;;5.90;4.55;;;20.60;99.90;;;;;;4590231;19;20014;-26
2023/07/28 05:56:38;;;;;;;4.82;3.63;;;20.60;99.90;;;;;;4589524;19;20462;-24
2023/07/28 05:58:09;;;;;;;7.35;4.40;;;20.70;99.90;;;;;;4588783;19;20021;-30
2023/07/28 05:59:47;;;;;;;6.40;4.03;;;20.70;99.90;;;;;;4588211;19;20006;-28
2023/07/28 06:01:19;;;;;;;6.28;4.25;;;20.70;99.90;;;;;;4587941;19;20055;-29
2023/07/28 06:02:51;;;;;;;5.32;3.78;;;20.70;99.90;;;;;;4589257;19;20077;-25
2023/07/28 06:04:22;;;;;;;7.25;4.18;;;20.70;99.90;;;;;;4588705;19;20049;-29
2023/07/28 06:05:53;;;;;;;4.60;3.45;;;20.70;99.90;;;;;;4587429;19;20356;-24
2023/07/28 06:07:26;;;;;;;5.40;3.50;;;20.70;99.90;;;;;;4589720;19;20038;-25
2023/07/28 06:09:07;;;;;;;4.88;3.28;;;20.80;99.90;;;;;;4588156;19;20014;-25
2023/07/28 06:10:39;;;;;;;5.22;3.58;;;20.80;99.90;;;;;;4588776;19;20011;-27
2023/07/28 06:12:11;;;;;;;5.57;3.45;;;20.80;99.90;;;;;;4588562;19;20015;-28
2023/07/28 06:14:30;;;;;;;5.18;3.63;;;20.80;99.90;;;;;;4588874;19;20498;-29
2023/07/28 06:16:02;;;;;;;5.13;3.30;;;20.80;99.90;;;;;;4588109;19;20010;-31
2023/07/28 06:17:33;;;;;;;4.45;3.22;;;20.80;99.90;;;;;;4588360;19;20109;-27
2023/07/28 06:19:05;;;;;;;5.05;3.30;;;20.80;99.90;;;;;;4588567;19;20044;-24
2023/07/28 06:20:36;;;;;;;5.97;3.88;;;20.80;99.90;;;;;;4586930;19;20011;-24
2023/07/28 06:22:07;;;;;;;4.93;3.22;;;20.80;99.90;;;;;;4588397;19;20093;-28
2023/07/28 06:23:39;;;;;;;;;;;20.80;99.90;;;;;;4589750;19;20027;-27
2023/07/28 06:25:10;;;;;;;5.10;4.20;;;20.90;99.90;;;;;;4588561;19;19925;-25
2023/07/28 06:26:41;;;;;;;4.75;3.75;;;20.90;99.90;;;;;;4588318;19;20038;-23
2023/07/28 06:28:13;;;;;;;5.35;3.53;;;21.00;99.90;;;;;;4590009;19;20546;-28
2023/07/28 06:29:44;;;;;;;5.90;3.58;;;21.00;99.90;;;;;;4591744;19;20026;-25
2023/07/28 06:31:15;;;;;;;6.00;3.90;;;21.10;99.90;;;;;;4589483;19;20486;-29
2023/07/28 06:32:48;;;;;;;4.65;3.63;;;21.20;99.90;;;;;;4588887;19;20010;-24
2023/07/28 06:34:19;;;;;;;5.57;3.80;;;21.30;99.90;;;;;;4590827;19;20022;-26
2023/07/28 06:35:50;;;;;;;6.05;3.80;;;21.30;99.90;;;;;;4590315;19;20018;-27
2023/07/28 06:37:22;;;;;;;6.13;3.78;;;21.40;99.90;;;;;;4591499;19;20040;-24
2023/07/28 06:38:55;;;;;;;6.15;4.03;;;21.40;99.90;;;;;;4589296;19;20021;-24
2023/07/28 06:40:32;;;;;;;4.60;3.42;;;21.50;99.90;;;;;;4589890;19;20018;-28
2023/07/28 06:42:03;;;;;;;;;;;21.50;99.90;;;;;;4590406;19;20019;-24
2023/07/28 06:43:35;;;;;;;4.90;3.50;;;21.50;99.90;;;;;;4589902;19;19921;-30
2023/07/28 06:45:07;;;;;;;5.38;3.63;;;21.60;99.90;;;;;;4589651;19;20022;-27
2023/07/28 06:46:38;;;;;;;6.10;4.05;;;21.60;99.90;;;;;;4589816;19;20058;-25
2023/07/28 06:48:11;;;;;;;6.28;3.45;;;21.60;99.90;;;;;;4586064;19;20006;-27
2023/07/28 06:49:42;;;;;;;5.38;3.70;;;21.60;99.90;;;;;;4589276;19;20074;-26
2023/07/28 06:51:14;;;;;;;5.60;3.42;;;21.60;99.90;;;;;;4590286;19;20025;-25
2023/07/28 06:52:50;;;;;;;3.83;2.97;;;21.50;99.90;;;;;;4588121;19;20018;-26
2023/07/28 06:54:22;;;;;;;3.72;2.78;;;21.50;99.90;;;;;;4589860;19;20472;-25
2023/07/28 06:55:54;;;;;;;5.32;3.28;;;21.50;99.90;;;;;;4590224;19;20011;-27
2023/07/28 06:57:25;;;;;;;4.43;3.30;;;21.50;99.90;;;;;;4588363;19;20015;-26
2023/07/28 06:58:56;;;;;;;4.53;3.20;;;21.50;99.90;;;;;;4588791;19;20015;-25
2023/07/28 07:00:27;;;;;;;4.65;3.03;;;21.50;99.90;;;;;;4588756;19;20019;-24
2023/07/28 07:01:59;;;;;;;4.97;3.38;;;21.50;99.90;;;;;;4588408;19;20007;-25
2023/07/28 07:03:30;;;;;;;4.80;3.15;;;21.50;99.90;;;;;;4590968;19;20014;-25
2023/07/28 07:05:04;;;;;;;3.92;3.17;;;21.60;99.90;;;;;;4588151;19;20491;-25
2023/07/28 07:06:36;;;;;;;4.28;3.28;;;21.60;99.90;;;;;;4591136;19;20011;-25
2023/07/28 07:08:07;;;;;;;4.55;3.15;;;21.60;99.90;;;;;;4589007;19;20041;-25
2023/07/28 07:09:38;;;;;;;4.38;3.13;;;21.60;99.90;;;;;;4589926;19;20011;-25
2023/07/28 07:11:11;;;;;;;4.50;3.42;;;21.50;99.90;;;;;;4589723;19;20019;-26
2023/07/28 07:12:45;;;;;;;3.80;2.95;;;21.60;99.90;;;;;;4585515;19;20018;-29
2023/07/28 07:14:19;;;;;;;4.15;3.33;;;21.60;99.90;;;;;;4589617;19;20011;-28
2023/07/28 07:15:54;;;;;;;5.65;3.88;;;21.60;99.90;;;;;;4587773;19;20403;-25
2023/07/28 07:17:26;;;;;;;4.30;3.00;;;21.60;99.90;;;;;;4588632;19;20032;-30
2023/07/28 07:18:57;;;;;;;3.72;3.00;;;21.60;99.90;;;;;;4588117;19;20021;-25
2023/07/28 07:20:29;;;;;;;;;;;21.60;99.90;;;;;;4590553;19;20014;-26
2023/07/28 07:22:01;;;;;;;4.00;3.60;;;21.50;99.90;;;;;;4588462;19;19926;-24
2023/07/28 07:23:35;;;;;;;3.95;3.15;;;21.50;99.90;;;;;;4588303;19;20018;-25
2023/07/28 07:25:10;;;;;;;4.43;3.67;;;21.50;99.90;;;;;;4589337;19;20010;-27
2023/07/28 07:26:45;;;;;;;4.07;3.17;;;21.50;99.90;;;;;;4587073;19;20376;-29
2023/07/28 07:28:19;;;;;;;4.28;3.15;;;21.50;99.90;;;;;;4588648;19;20015;-27
2023/07/28 07:29:54;;;;;;;4.72;3.38;;;21.50;99.90;;;;;;4587952;19;20366;-29
2023/07/28 07:31:29;;;;;;;4.57;2.90;;;21.50;99.90;;;;;;4588376;19;20073;-24
2023/07/28 07:33:02;;;;;;;5.45;3.40;;;21.40;99.90;;;;;;4588211;19;20621;-25
2023/07/28 07:34:36;;;;;;;3.85;3.15;;;21.40;99.90;;;;;;4587954;19;20026;-25
2023/07/28 07:36:13;;;;;;;5.50;3.17;;;21.40;99.90;;;;;;4587886;19;20035;-25
2023/07/28 07:37:45;;;;;;;4.85;3.40;;;21.40;99.90;;;;;;4588568;19;20394;-26
2023/07/28 07:39:18;;;;;;;4.65;3.50;;;21.40;99.90;;;;;;4587490;19;20022;-26
2023/07/28 07:40:50;;;;;;;5.32;3.40;;;21.40;99.90;;;;;;4588376;19;20478;-31
2023/07/28 07:42:22;;;;;;;3.25;2.95;;;21.40;99.90;;;;;;4587012;19;20369;-25
2023/07/28 07:43:54;;;;;;;4.47;3.22;;;21.40;99.90;;;;;;4587776;19;20416;-27
2023/07/28 07:45:26;;;;;;;3.65;2.90;;;21.40;99.90;;;;;;4586918;19;20015;-26
2023/07/28 07:47:00;;;;;;;3.85;3.03;;;21.40;99.90;;;;;;4588115;19;20513;-30
2023/07/28 07:48:31;;;;;;;3.40;2.47;;;21.50;99.90;;;;;;4588513;19;20460;-29
2023/07/28 07:50:03;;;;;;;;;;;21.40;99.90;;;;;;4588289;19;20035;-25
2023/07/28 07:51:34;;;;;;;5.07;2.85;;;21.40;99.90;;;;;;4588053;19;19927;-26
2023/07/28 07:53:05;;;;;;;3.38;2.45;;;21.40;99.90;;;;;;4588487;19;20018;-25
2023/07/28 07:54:37;;;;;;;4.65;2.80;;;21.40;99.90;;;;;;4589693;19;20409;-28
2023/07/28 07:56:09;;;;;;;3.38;2.80;;;21.40;99.90;;;;;;4589415;19;20025;-26
2023/07/28 07:57:40;;;;;;;3.25;2.63;;;21.40;99.90;;;;;;4586394;19;20018;-28
2023/07/28 07:59:11;;;;;;;5.70;3.45;;;21.40;99.90;;;;;;4586401;19;20038;-25
2023/07/28 08:00:44;;;;;;;3.75;3.33;;;21.40;99.90;;;;;;4592246;19;20038;-32
2023/07/28 08:02:15;;;;;;;5.05;3.42;;;21.40;99.90;;;;;;4591287;19;20022;-27
2023/07/28 08:03:46;;;;;;;4.50;3.78;;;21.40;99.90;;;;;;4591996;19;20018;-29
2023/07/28 08:05:17;;;;;;;;;;;21.40;99.90;;;;;;4592250;19;20014;-30